createdAt,value
2019-02-26T00:00:30.895Z,64.50
2019-02-26T00:03:04.177Z,66.30
2019-02-26T00:05:33.337Z,58.93
2019-02-26T00:08:03.772Z,62.37
2019-02-26T00:10:36.546Z,64.73
2019-02-26T00:13:06.290Z,56.80
2019-02-26T00:15:53.094Z,61.53
2019-02-26T00:18:26.748Z,57.43
2019-02-26T00:20:59.015Z,54.13
2019-02-26T00:23:30.050Z,60.07
2019-02-26T00:26:00.538Z,56.50
2019-02-26T00:28:30.963Z,59.00
2019-02-26T00:31:02.115Z,52.83
2019-02-26T00:33:33.490Z,52.47
2019-02-26T00:36:04.495Z,54.60
2019-02-26T00:38:37.616Z,51.23
2019-02-26T00:41:08.166Z,46.13
2019-02-26T00:43:38.613Z,50.93
2019-02-26T00:46:10.355Z,46.97
2019-02-26T00:48:43.034Z,51.37
2019-02-26T00:51:12.834Z,48.40
2019-02-26T00:53:43.325Z,46.33
2019-02-26T00:56:13.739Z,48.43
2019-02-26T00:58:46.175Z,43.83
2019-02-26T01:01:17.746Z,51.20
2019-02-26T01:03:49.381Z,44.83
2019-02-26T01:06:20.263Z,49.93
2019-02-26T01:08:50.689Z,46.03
2019-02-26T01:11:23.894Z,49.38
2019-02-26T01:13:55.571Z,57.30
2019-02-26T01:16:26.951Z,67.90
2019-02-26T01:18:57.368Z,52.97
2019-02-26T01:21:29.097Z,51.83
2019-02-26T01:24:01.767Z,43.30
2019-02-26T01:26:31.875Z,48.67
2019-02-26T01:29:02.370Z,46.00
2019-02-26T01:31:33.945Z,48.10
2019-02-26T01:34:06.119Z,42.50
2019-02-26T01:36:38.197Z,46.37
2019-02-26T01:39:11.265Z,38.53
2019-02-26T01:41:43.373Z,45.13
2019-02-26T01:44:12.741Z,45.10
2019-02-26T01:46:43.136Z,41.43
2019-02-26T01:49:13.578Z,42.23
2019-02-26T01:51:46.936Z,40.23
2019-02-26T01:54:16.800Z,44.80
2019-02-26T01:56:47.366Z,42.10
2019-02-26T01:59:18.999Z,36.53
2019-02-26T02:01:51.406Z,38.50
2019-02-26T02:04:21.605Z,38.60
2019-02-26T02:06:54.319Z,33.93
2019-02-26T02:09:25.075Z,35.80
2019-02-26T02:11:57.394Z,33.07
2019-02-26T02:14:27.657Z,36.77
2019-02-26T02:16:58.075Z,32.57
2019-02-26T02:19:30.086Z,34.93
2019-02-26T02:22:00.618Z,31.83
2019-02-26T02:24:31.014Z,32.13
2019-02-26T02:27:01.470Z,34.60
2019-02-26T02:29:31.862Z,31.47
2019-02-26T02:32:04.888Z,29.97
2019-02-26T02:34:36.593Z,39.53
2019-02-26T02:37:06.416Z,26.93
2019-02-26T02:39:36.935Z,32.00
2019-02-26T02:42:08.374Z,27.27
2019-02-26T02:44:41.311Z,25.63
2019-02-26T02:47:11.987Z,26.73
2019-02-26T02:49:44.249Z,28.93
2019-02-26T02:52:14.385Z,33.13
2019-02-26T02:54:47.043Z,29.97
2019-02-26T02:57:16.854Z,26.80
2019-02-26T02:59:47.222Z,25.83
2019-02-26T03:02:19.966Z,31.80
2019-02-26T03:04:49.669Z,26.70
2019-02-26T03:07:20.855Z,25.60
2019-02-26T03:09:52.163Z,22.87
2019-02-26T03:12:22.682Z,23.40
2019-02-26T03:14:53.051Z,27.57
2019-02-26T03:17:23.490Z,24.77
2019-02-26T03:19:56.025Z,24.10
2019-02-26T03:22:25.935Z,23.23
2019-02-26T03:24:57.468Z,23.33
2019-02-26T03:27:31.331Z,22.03
2019-02-26T03:30:02.010Z,27.97
2019-02-26T03:32:36.062Z,22.33
2019-02-26T03:35:07.421Z,25.33
2019-02-26T03:37:36.721Z,19.70
2019-02-26T03:40:09.928Z,21.50
2019-02-26T03:42:43.455Z,19.53
2019-02-26T03:45:23.592Z,23.63
2019-02-26T03:47:50.430Z,23.03
2019-02-26T03:50:20.856Z,20.63
2019-02-26T03:52:51.247Z,23.00
2019-02-26T03:55:21.676Z,19.77
2019-02-26T03:57:54.432Z,24.33
2019-02-26T04:00:27.051Z,21.57
2019-02-26T04:02:57.449Z,18.40
2019-02-26T04:05:27.857Z,25.90
2019-02-26T04:07:59.513Z,19.77
2019-02-26T04:10:30.244Z,20.30
2019-02-26T04:13:00.740Z,19.90
2019-02-26T04:15:33.513Z,21.67
2019-02-26T04:18:03.228Z,21.90
2019-02-26T04:20:33.652Z,20.70
2019-02-26T04:23:04.120Z,20.90
2019-02-26T04:25:59.877Z,20.13
2019-02-26T04:28:35.772Z,21.50
2019-02-26T04:31:13.845Z,24.60
2019-02-26T04:33:58.914Z,20.37
2019-02-26T04:36:48.737Z,23.47
2019-02-26T04:39:34.457Z,19.27
2019-02-26T04:42:17.596Z,15.97
2019-02-26T04:45:08.929Z,19.70
2019-02-26T04:47:59.974Z,23.43
2019-02-26T04:50:33.093Z,20.63
2019-02-26T04:53:04.885Z,18.97
2019-02-26T04:55:36.049Z,24.90
2019-02-26T04:58:08.608Z,24.73
2019-02-26T05:00:38.819Z,22.30
2019-02-26T05:03:11.857Z,25.50
2019-02-26T05:05:41.265Z,28.67
2019-02-26T05:08:12.838Z,24.00
2019-02-26T05:10:43.893Z,24.70
2019-02-26T05:13:14.439Z,26.60
2019-02-26T05:15:44.944Z,24.73
2019-02-26T05:18:17.632Z,26.27
2019-02-26T05:20:48.435Z,19.17
2019-02-26T05:23:20.670Z,19.37
2019-02-26T05:25:51.988Z,19.60
2019-02-26T05:28:22.430Z,22.57
2019-02-26T05:30:52.828Z,19.90
2019-02-26T05:33:25.246Z,24.77
2019-02-26T05:35:55.272Z,20.73
2019-02-26T05:38:26.569Z,26.00
2019-02-26T05:40:57.802Z,23.17
2019-02-26T05:43:30.638Z,29.63
2019-02-26T05:46:03.850Z,28.33
2019-02-26T05:48:42.915Z,21.87
2019-02-26T05:51:15.346Z,22.43
2019-02-26T05:53:51.715Z,19.13
2019-02-26T05:56:23.717Z,21.93
2019-02-26T05:58:54.190Z,19.67
2019-02-26T06:01:27.793Z,23.20
2019-02-26T06:03:56.874Z,21.13
2019-02-26T06:06:27.357Z,25.53
2019-02-26T06:09:05.713Z,19.60
2019-02-26T06:11:41.744Z,21.97
2019-02-26T06:14:12.607Z,23.83
2019-02-26T06:16:46.191Z,25.77
2019-02-26T06:19:18.295Z,24.33
2019-02-26T06:21:49.731Z,20.63
2019-02-26T06:24:27.068Z,19.03
2019-02-26T06:26:57.767Z,24.27
2019-02-26T06:29:32.062Z,22.83
2019-02-26T06:32:12.027Z,20.67
2019-02-26T06:34:42.478Z,24.87
2019-02-26T06:37:23.737Z,24.53
2019-02-26T06:39:57.044Z,21.80
2019-02-26T06:42:28.295Z,15.00
2019-02-26T06:45:04.053Z,21.40
2019-02-26T06:47:37.315Z,17.87
2019-02-26T06:50:11.086Z,21.20
2019-02-26T06:52:44.720Z,19.90
2019-02-26T06:55:16.379Z,20.93
2019-02-26T06:57:52.710Z,20.97
2019-02-26T07:00:26.924Z,18.13
2019-02-26T07:03:00.104Z,21.13
2019-02-26T07:05:32.630Z,25.87
2019-02-26T07:08:06.634Z,22.80
2019-02-26T07:10:38.414Z,26.57
2019-02-26T07:13:10.128Z,27.47
2019-02-26T07:15:42.954Z,20.03
2019-02-26T07:18:17.116Z,22.83
2019-02-26T07:20:49.884Z,29.60
2019-02-26T07:23:20.913Z,21.83
2019-02-26T07:25:55.657Z,28.25
2019-02-26T07:28:29.168Z,26.97
2019-02-26T07:31:00.472Z,23.67
2019-02-26T07:33:34.643Z,19.27
2019-02-26T07:36:04.272Z,19.57
2019-02-26T07:38:41.358Z,22.00
2019-02-26T07:41:07.112Z,30.80
2019-02-26T07:43:41.067Z,23.03
2019-02-26T07:46:12.131Z,19.40
2019-02-26T07:48:46.124Z,20.10
2019-02-26T07:51:17.677Z,19.07
2019-02-26T07:53:51.019Z,20.60
2019-02-26T07:56:21.140Z,24.73
2019-02-26T07:58:52.245Z,21.43
2019-02-26T08:01:22.685Z,23.33
2019-02-26T08:03:53.360Z,23.73
2019-02-26T08:06:23.772Z,23.03
2019-02-26T08:08:54.245Z,21.10
2019-02-26T08:11:24.626Z,26.03
2019-02-26T08:13:56.740Z,19.60
2019-02-26T08:16:30.105Z,20.73
2019-02-26T08:19:01.362Z,25.10
2019-02-26T08:21:31.935Z,28.43
2019-02-26T08:24:02.308Z,28.27
2019-02-26T08:26:32.783Z,24.03
2019-02-26T08:29:05.118Z,25.83
2019-02-26T08:31:35.296Z,27.67
2019-02-26T08:34:05.709Z,34.37
2019-02-26T08:36:36.562Z,35.17
2019-02-26T08:39:09.467Z,32.70
2019-02-26T08:41:39.947Z,32.37
2019-02-26T08:44:10.348Z,26.23
2019-02-26T08:46:42.733Z,30.97
2019-02-26T08:49:13.775Z,22.80
2019-02-26T08:51:44.978Z,18.73
2019-02-26T08:54:20.761Z,18.53
2019-02-26T08:56:47.507Z,25.20
2019-02-26T08:59:20.029Z,19.87
2019-02-26T09:01:49.964Z,22.97
2019-02-26T09:04:21.411Z,20.30
2019-02-26T09:06:54.550Z,28.67
2019-02-26T09:09:25.919Z,19.33
2019-02-26T09:11:58.885Z,22.37
2019-02-26T09:14:32.178Z,22.87
2019-02-26T09:17:02.141Z,20.73
2019-02-26T09:19:35.502Z,20.20
2019-02-26T09:22:09.699Z,24.93
2019-02-26T09:24:39.114Z,22.77
2019-02-26T09:27:09.590Z,30.27
2019-02-26T09:29:43.924Z,27.07
2019-02-26T09:32:14.405Z,19.53
2019-02-26T09:34:44.685Z,18.80
2019-02-26T09:37:15.140Z,17.67
2019-02-26T09:39:45.613Z,21.03
2019-02-26T09:42:16.288Z,20.13
2019-02-26T09:44:48.237Z,24.03
2019-02-26T09:47:23.516Z,26.13
2019-02-26T09:49:54.356Z,24.03
2019-02-26T09:52:27.686Z,31.07
2019-02-26T09:55:00.069Z,28.97
2019-02-26T09:57:33.109Z,23.27
2019-02-26T10:00:05.365Z,27.93
2019-02-26T10:02:35.792Z,21.23
2019-02-26T10:05:08.629Z,26.13
2019-02-26T10:07:39.872Z,21.00
2019-02-26T10:10:15.988Z,26.97
2019-02-26T10:12:46.437Z,23.57
2019-02-26T10:15:17.822Z,23.00
2019-02-26T10:17:48.349Z,34.83
2019-02-26T10:20:24.777Z,32.43
2019-02-26T10:22:57.789Z,28.40
2019-02-26T10:25:29.340Z,24.47
2019-02-26T10:28:06.089Z,25.83
2019-02-26T10:30:36.202Z,28.87
2019-02-26T10:33:07.755Z,28.40
2019-02-26T10:35:39.651Z,27.20
2019-02-26T10:38:11.551Z,25.20
2019-02-26T10:40:53.519Z,28.85
2019-02-26T10:43:16.804Z,25.93
2019-02-26T10:45:48.195Z,27.00
2019-02-26T10:48:22.067Z,32.13
2019-02-26T10:50:51.953Z,34.40
2019-02-26T10:53:22.779Z,38.40
2019-02-26T10:55:53.309Z,36.27
2019-02-26T10:58:23.745Z,27.77
2019-02-26T11:00:55.716Z,24.77
2019-02-26T11:03:26.298Z,18.07
2019-02-26T11:05:56.768Z,20.67
2019-02-26T11:08:29.642Z,23.38
2019-02-26T11:10:59.399Z,23.53
2019-02-26T11:13:29.892Z,23.90
2019-02-26T11:16:03.074Z,26.73
2019-02-26T11:18:34.635Z,26.43
2019-02-26T11:21:04.619Z,24.87
2019-02-26T11:23:38.642Z,35.23
2019-02-26T11:26:10.557Z,31.93
2019-02-26T11:28:42.863Z,32.53
2019-02-26T11:31:14.116Z,32.87
2019-02-26T11:33:44.934Z,31.97
2019-02-26T11:36:15.767Z,34.23
2019-02-26T11:38:47.051Z,29.33
2019-02-26T11:41:17.545Z,33.87
2019-02-26T11:43:47.923Z,34.43
2019-02-26T11:46:20.104Z,34.03
2019-02-26T11:48:52.447Z,33.20
2019-02-26T11:51:22.567Z,35.20
2019-02-26T11:53:53.013Z,37.23
2019-02-26T11:56:25.787Z,37.37
2019-02-26T11:58:57.154Z,49.80
2019-02-26T12:01:29.461Z,52.87
2019-02-26T12:04:03.529Z,56.23
2019-02-26T12:06:31.632Z,45.90
2019-02-26T12:09:10.904Z,39.23
2019-02-26T12:11:40.592Z,38.53
2019-02-26T12:14:13.703Z,41.30
2019-02-26T12:19:45.712Z,35.37
2019-02-26T12:22:17.927Z,39.70
2019-02-26T12:24:53.022Z,36.67
2019-02-26T12:27:23.728Z,40.23
2019-02-26T12:29:54.620Z,43.00
2019-02-26T12:32:27.471Z,43.70
2019-02-26T12:35:03.431Z,43.03
2019-02-26T12:37:34.411Z,41.00
2019-02-26T12:40:10.330Z,41.73
2019-02-26T12:42:41.760Z,44.00
2019-02-26T12:45:19.748Z,52.33
2019-02-26T12:47:53.083Z,45.67
2019-02-26T12:50:26.613Z,46.23
2019-02-26T12:52:57.138Z,45.33
2019-02-26T12:55:31.670Z,54.87
2019-02-26T12:58:00.436Z,51.63
2019-02-26T13:00:30.868Z,57.23
2019-02-26T13:03:01.375Z,52.37
2019-02-26T13:05:31.903Z,54.03
2019-02-26T13:08:03.291Z,58.60
2019-02-26T13:10:38.487Z,53.77
2019-02-26T13:13:09.886Z,60.27
2019-02-26T13:15:40.338Z,56.07
2019-02-26T13:18:13.525Z,61.27
2019-02-26T13:20:52.038Z,61.87
2019-02-26T13:23:23.011Z,61.07
2019-02-26T13:25:53.496Z,73.90
2019-02-26T13:28:29.585Z,71.27
2019-02-26T13:31:01.356Z,73.03
2019-02-26T13:33:37.488Z,70.13
2019-02-26T13:36:04.801Z,71.73
2019-02-26T13:41:27.224Z,88.13
2019-02-26T13:43:40.778Z,74.27
2019-02-26T13:46:13.641Z,66.43
2019-02-26T13:48:44.006Z,65.90
2019-02-26T13:51:14.443Z,66.57
2019-02-26T13:53:46.555Z,58.47
2019-02-26T13:56:17.030Z,56.30
2019-02-26T13:58:47.428Z,60.80
2019-02-26T14:01:17.846Z,57.33
2019-02-26T14:03:48.256Z,55.40
2019-02-26T14:06:18.679Z,60.10
2019-02-26T14:08:49.166Z,55.27
2019-02-26T14:11:19.538Z,53.47
2019-02-26T14:13:50.372Z,42.97
2019-02-26T14:16:20.826Z,46.27
2019-02-26T14:18:51.273Z,44.73
2019-02-26T14:21:21.874Z,43.77
2019-02-26T14:23:52.342Z,37.37
2019-02-26T14:26:26.337Z,36.70
2019-02-26T14:28:56.829Z,38.43
2019-02-26T14:31:27.245Z,33.83
2019-02-26T14:33:57.845Z,34.33
2019-02-26T14:36:28.433Z,31.40
2019-02-26T14:39:00.681Z,30.63
2019-02-26T14:41:31.217Z,32.07
2019-02-26T14:44:01.617Z,31.53
2019-02-26T14:46:32.081Z,33.43
2019-02-26T14:49:04.287Z,24.93
2019-02-26T14:51:35.034Z,26.20
2019-02-26T14:54:06.518Z,25.47
2019-02-26T14:56:36.987Z,22.10
2019-02-26T14:59:09.392Z,24.17
2019-02-26T15:01:39.760Z,26.20
2019-02-26T15:04:10.150Z,23.27
2019-02-26T15:06:40.658Z,22.07
2019-02-26T15:09:11.030Z,21.33
2019-02-26T15:11:41.636Z,28.03
2019-02-26T15:14:12.081Z,27.43
2019-02-26T15:16:42.675Z,27.80
2019-02-26T15:19:13.091Z,29.63
2019-02-26T15:21:49.344Z,25.87
2019-02-26T15:24:19.788Z,25.03
2019-02-26T15:26:50.280Z,26.50
2019-02-26T15:29:20.740Z,26.80
2019-02-26T15:31:51.185Z,29.10
2019-02-26T15:34:21.932Z,31.33
2019-02-26T15:36:52.456Z,28.70
2019-02-26T15:39:23.304Z,27.40
2019-02-26T15:41:53.700Z,31.50
2019-02-26T15:44:26.127Z,28.27
2019-02-26T15:46:56.326Z,31.13
2019-02-26T15:49:26.798Z,32.17
2019-02-26T15:51:57.281Z,30.57
2019-02-26T15:54:27.896Z,31.93
2019-02-26T15:57:00.490Z,38.70
2019-02-26T15:59:30.333Z,32.77
2019-02-26T16:02:00.746Z,35.93
2019-02-26T16:04:31.153Z,39.27
2019-02-26T16:07:01.817Z,34.97
2019-02-26T16:09:32.310Z,39.42
2019-02-26T16:12:02.822Z,33.83
2019-02-26T16:14:33.765Z,35.17
2019-02-26T16:17:04.235Z,32.53
2019-02-26T16:19:36.253Z,34.07
2019-02-26T16:22:06.805Z,37.60
2019-02-26T16:24:37.973Z,35.23
2019-02-26T16:27:08.869Z,31.30
2019-02-26T16:29:39.339Z,39.83
2019-02-26T16:32:40.938Z,37.43
2019-02-26T16:35:24.960Z,38.38
2019-02-26T16:37:54.936Z,32.70
2019-02-26T16:40:25.443Z,36.47
2019-02-26T16:42:55.824Z,38.40
2019-02-26T16:45:34.434Z,36.13
2019-02-26T16:48:05.396Z,39.17
2019-02-26T16:50:45.231Z,36.93
2019-02-26T16:53:17.226Z,38.83
2019-02-26T16:55:50.924Z,38.33
2019-02-26T16:58:29.768Z,32.37
2019-02-26T17:01:05.954Z,37.37
2019-02-26T17:03:46.679Z,35.97
2019-02-26T17:06:22.488Z,32.77
2019-02-26T17:09:08.764Z,34.37
2019-02-26T17:11:39.619Z,38.97
2019-02-26T17:14:10.394Z,34.47
2019-02-26T17:16:42.994Z,32.53
2019-02-26T17:19:15.470Z,33.93
2019-02-26T17:21:46.918Z,31.17
2019-02-26T17:24:39.180Z,32.10
2019-02-26T17:27:10.377Z,34.50
2019-02-26T17:29:41.301Z,35.98
2019-02-26T17:32:13.178Z,35.27
2019-02-26T17:34:48.056Z,32.20
2019-02-26T17:37:21.495Z,34.77
2019-02-26T17:39:53.342Z,40.40
2019-02-26T17:42:24.118Z,35.30
2019-02-26T17:44:54.699Z,40.20
2019-02-26T17:47:25.471Z,32.70
2019-02-26T17:49:57.505Z,34.93
2019-02-26T17:52:29.399Z,33.50
2019-02-26T17:55:09.453Z,31.27
2019-02-26T17:57:45.979Z,36.73
2019-02-26T18:00:23.589Z,32.50
2019-02-26T18:02:54.085Z,32.53
2019-02-26T18:05:25.556Z,34.53
2019-02-26T18:07:56.193Z,33.33
2019-02-26T18:10:27.486Z,32.27
2019-02-26T18:12:58.046Z,33.00
2019-02-26T18:15:28.499Z,35.60
2019-02-26T18:17:58.997Z,38.17
2019-02-26T18:20:32.205Z,35.60
2019-02-26T18:23:04.799Z,32.17
2019-02-26T18:25:35.496Z,31.20
2019-02-26T18:28:09.993Z,38.87
2019-02-26T18:30:40.594Z,33.57
2019-02-26T18:33:21.815Z,33.90
2019-02-26T18:35:49.443Z,33.40
2019-02-26T18:38:22.189Z,34.00
2019-02-26T18:40:52.744Z,34.13
2019-02-26T18:43:23.238Z,32.10
2019-02-26T18:45:53.766Z,34.13
2019-02-26T18:48:24.255Z,36.93
2019-02-26T18:50:54.854Z,36.17
2019-02-26T18:53:25.366Z,31.97
2019-02-26T18:55:55.793Z,31.83
2019-02-26T18:58:27.780Z,33.10
2019-02-26T19:00:58.760Z,34.27
2019-02-26T19:03:29.661Z,34.77
2019-02-26T19:06:00.117Z,36.30
2019-02-26T19:08:30.587Z,32.40
2019-02-26T19:11:02.645Z,32.43
2019-02-26T19:13:35.660Z,30.37
2019-02-26T19:16:16.001Z,29.50
2019-02-26T19:18:51.864Z,39.80
2019-02-26T19:21:23.583Z,28.83
2019-02-26T19:23:54.165Z,28.33
2019-02-26T19:26:24.607Z,30.55
2019-02-26T19:28:56.790Z,33.30
2019-02-26T19:31:27.008Z,32.07
2019-02-26T19:33:57.454Z,36.93
2019-02-26T19:36:27.920Z,37.97
2019-02-26T19:39:00.484Z,32.77
2019-02-26T19:41:30.382Z,30.67
2019-02-26T19:44:00.849Z,29.37
2019-02-26T19:46:31.236Z,34.13
2019-02-26T19:49:05.557Z,34.37
2019-02-26T19:51:34.795Z,40.27
2019-02-26T19:54:06.914Z,38.77
2019-02-26T19:56:37.478Z,31.70
2019-02-26T19:59:08.018Z,31.90
2019-02-26T20:01:38.439Z,31.23
2019-02-26T20:04:08.864Z,29.60
2019-02-26T20:06:39.391Z,34.27
2019-02-26T20:09:09.927Z,30.20
2019-02-26T20:11:40.320Z,38.50
2019-02-26T20:14:11.564Z,30.60
2019-02-26T20:16:44.282Z,27.47
2019-02-26T20:19:14.930Z,28.57
2019-02-26T20:21:45.791Z,28.30
2019-02-26T20:24:16.573Z,30.30
2019-02-26T20:26:49.964Z,30.40
2019-02-26T20:29:19.717Z,42.57
2019-02-26T20:34:45.968Z,30.80
2019-02-26T20:37:16.513Z,27.70
2019-02-26T20:39:46.860Z,30.03
2019-02-26T20:42:17.361Z,36.07
2019-02-26T20:44:47.830Z,29.87
2019-02-26T20:47:19.094Z,34.17
2019-02-26T20:49:49.484Z,23.70
2019-02-26T20:52:19.976Z,30.37
2019-02-26T20:54:50.515Z,28.13
2019-02-26T20:57:20.945Z,29.03
2019-02-26T20:59:52.960Z,25.70
2019-02-26T21:02:23.432Z,26.40
2019-02-26T21:04:53.868Z,23.87
2019-02-26T21:07:24.558Z,28.40
2019-02-26T21:10:03.487Z,21.10
2019-02-26T21:12:31.223Z,26.33
2019-02-26T21:15:05.700Z,28.37
2019-02-26T21:17:36.304Z,25.03
2019-02-26T21:20:09.562Z,21.87
2019-02-26T21:22:42.831Z,21.77
2019-02-26T21:25:14.929Z,27.17
2019-02-26T21:27:46.637Z,25.63
2019-02-26T21:30:18.638Z,24.57
2019-02-26T21:32:49.109Z,25.93
2019-02-26T21:35:20.665Z,25.60
2019-02-26T21:37:51.985Z,24.03
2019-02-26T21:40:23.951Z,25.17
2019-02-26T21:42:56.564Z,21.20
2019-02-26T21:45:29.230Z,23.20
2019-02-26T21:48:02.383Z,19.00
2019-02-26T21:50:35.853Z,25.37
2019-02-26T21:53:06.355Z,25.17
2019-02-26T21:55:44.233Z,21.73
2019-02-26T21:58:08.855Z,19.57
2019-02-26T22:00:39.819Z,22.23
2019-02-26T22:03:13.265Z,22.33
2019-02-26T22:05:43.865Z,25.17
2019-02-26T22:08:14.322Z,20.40
2019-02-26T22:10:44.777Z,19.17
2019-02-26T22:13:15.267Z,29.40
2019-02-26T22:15:45.609Z,26.87
2019-02-26T22:18:16.048Z,47.17
2019-02-26T22:20:47.712Z,25.63
2019-02-26T22:23:18.114Z,24.32
2019-02-26T22:25:49.826Z,20.87
2019-02-26T22:28:23.009Z,20.50
2019-02-26T22:30:55.725Z,27.83
2019-02-26T22:33:25.650Z,20.30
2019-02-26T22:35:56.994Z,17.67
2019-02-26T22:38:28.139Z,19.23
2019-02-26T22:40:59.884Z,19.77
2019-02-26T22:43:30.769Z,21.80
2019-02-26T22:46:01.777Z,15.83
2019-02-26T22:48:32.191Z,18.97
2019-02-26T22:51:02.593Z,13.03
2019-02-26T22:53:36.366Z,17.57
2019-02-26T22:56:05.060Z,18.27
2019-02-26T22:58:35.851Z,20.03
2019-02-26T23:01:12.666Z,16.40
2019-02-26T23:03:45.708Z,20.27
2019-02-26T23:06:15.217Z,18.83
2019-02-26T23:08:45.622Z,18.43
2019-02-26T23:11:16.185Z,15.37
2019-02-26T23:13:46.591Z,18.23
2019-02-26T23:16:18.534Z,17.27
2019-02-26T23:18:49.220Z,17.03
2019-02-26T23:21:20.072Z,18.50
2019-02-26T23:23:54.679Z,19.63
2019-02-26T23:26:22.677Z,16.67
2019-02-26T23:28:54.856Z,20.23
2019-02-26T23:31:25.322Z,23.00
2019-02-26T23:33:55.799Z,21.10
2019-02-26T23:36:28.569Z,21.17
2019-02-26T23:38:58.305Z,19.70
2019-02-26T23:41:30.773Z,17.27
2019-02-26T23:44:00.832Z,18.03
2019-02-26T23:46:31.482Z,14.07
2019-02-26T23:49:01.887Z,16.90
2019-02-26T23:51:32.291Z,23.47
2019-02-26T23:54:04.697Z,14.40
2019-02-26T23:56:34.755Z,17.97
2019-02-26T23:59:05.164Z,19.13
